Fennville, MI (49408)

1:46 AM EDT on September 05, 2015 (GMT -0400)
Glenn | | Change Station
CLOSE
Current Station
Personal Weather Station
Location: Glenn, MI
Elevation: 705 ft
Nearby Weather Stations

Elev 705 ft 42.51 °N, 86.19 °W | Updated 1 minute ago

Mostly Cloudy
Mostly Cloudy
65.8 °F
Feels Like 65.8 °F
N
0.0
Wind Variable Wind from North
Gusts 0.0 mph

Today
High -- | Low -- °F
--% Chance of Precip.
Yesterday
High -- | Low -- °F
Precip. -- in
7:13 AM 8:12 PM
Waning Gibbous, 52% visible
Pressure 30.08 in
Visibility 0.5 miles
Clouds Mostly Cloudy 100 ft
Mostly Cloudy 5000 ft
Dew Point 65 °F
Humidity 97%
Rainfall 0.00 in
Snow Depth Not available.
UV 0.0 out of 12
Pollen 8.40 out of 12
Air Quality Not available.
Flu Activity Not available.
SPECI KBIV 050542Z AUTO 00000KT 1/2SM FG BKN001 BKN050 18/16 A3008 RMK AO2 VIS 1/4V2 T01780161
Pressure 30.08 in
Visibility 0.5 miles
Clouds Mostly Cloudy 100 ft
Mostly Cloudy 5000 ft
Dew Point 65 °F
Humidity 97%
Rainfall 0.00 in
Snow Depth Not available.
UV 0.0 out of 12
Pollen 8.40 out of 12
Air Quality Not available.
Flu Activity Not available.
SPECI KBIV 050542Z AUTO 00000KT 1/2SM FG BKN001 BKN050 18/16 A3008 RMK AO2 VIS 1/4V2 T01780161

10-Day Weather Forecast

×

Almanac

Astronomy

Sep. 05, 2015 Rise Set
Actual Time
Civil Twilight
Nautical Twilight
Astronomical Twilight
Moon
Length of Visible Light
Length of Day
Tomorrow will be .
, % of the Moon is Illuminated

Today's Extremes

State Highs State Lows

Community

WunderPhotos

Upload Photos

1,852,428 photos uploaded!

WunderBlogs® & News

Nearby

Air Quality

  Air Quality AQ Index Pollutant
Not available.

Snow Depth

Station Depth Elevation

Earthquake Activity

City Distance Mag. Time & Date
Minimum magnitude displayed is 2.5.

Coastal Water Temperatures

Place Temperature

Stations

Nearby Weather Stations

Station Location Temp. Windchill Dew Point Humidity Wind Precip. Elev Updated Type